Time;durP1;ratioP1;P1;durP2;ratioP2;P2;SDS_P1;SDS_P2;PMS_P1;PMS_P2;Temp;Humidity;BMP_temperature;BMP_pressure;BME280_temperature;BME280_humidity;BME280_pressure;Samples;Min_cycle;Max_cycle;Signal;HPM_P1;HPM_P2
2023/06/13 00:00:07;;;;;;;1999.90;999.90;;;20.40;69.80;;;;;;5054928;28;20037;-68
2023/06/13 00:02:33;;;;;;;1999.90;999.90;;;20.30;69.90;;;;;;5054775;28;20103;-69
2023/06/13 00:05:03;;;;;;;1999.90;999.90;;;20.30;70.00;;;;;;5053786;28;20049;-69
2023/06/13 00:07:32;;;;;;;1999.90;999.90;;;20.30;70.10;;;;;;5055329;28;20048;-69
2023/06/13 00:09:57;;;;;;;1999.90;999.90;;;20.20;70.10;;;;;;5053684;28;20048;-69
2023/06/13 00:12:24;;;;;;;1999.90;999.90;;;20.20;70.10;;;;;;5036563;28;20052;-69
2023/06/13 00:14:51;;;;;;;1999.90;999.90;;;20.20;70.30;;;;;;5054463;28;20451;-69
2023/06/13 00:17:18;;;;;;;1999.90;999.90;;;20.20;70.40;;;;;;5054916;28;20052;-69
2023/06/13 00:19:45;;;;;;;1999.90;999.90;;;20.10;70.50;;;;;;5054153;28;20507;-68
2023/06/13 00:22:14;;;;;;;1999.90;999.90;;;20.10;70.60;;;;;;5054691;28;20048;-69
2023/06/13 00:24:44;;;;;;;1999.90;999.90;;;20.10;70.70;;;;;;5055111;28;20102;-69
2023/06/13 00:27:10;;;;;;;1999.90;999.90;;;20.00;70.70;;;;;;5053407;28;20439;-69
2023/06/13 00:29:36;;;;;;;1999.90;999.90;;;20.00;70.90;;;;;;5054513;28;20226;-69
2023/06/13 00:32:01;;;;;;;1999.90;999.90;;;20.00;71.00;;;;;;5053236;28;20036;-69
2023/06/13 00:34:27;;;;;;;1999.90;999.90;;;19.90;71.00;;;;;;5053006;28;20136;-69
2023/06/13 00:36:55;;;;;;;1999.90;999.90;;;19.90;71.00;;;;;;5053487;28;20125;-69
2023/06/13 00:39:21;;;;;;;1999.90;999.90;;;19.90;71.10;;;;;;5054202;28;20397;-69
2023/06/13 00:41:47;;;;;;;1999.90;999.90;;;19.90;71.30;;;;;;5053784;28;20519;-69
2023/06/13 00:44:13;;;;;;;1999.90;999.90;;;19.80;71.40;;;;;;5054361;28;20053;-69
2023/06/13 00:46:41;;;;;;;1999.90;999.90;;;19.80;71.50;;;;;;5053301;28;20457;-70
2023/06/13 00:49:08;;;;;;;1999.90;999.90;;;19.80;71.50;;;;;;5052052;28;20456;-70
2023/06/13 00:51:36;;;;;;;1999.90;999.90;;;19.70;71.60;;;;;;5054174;28;20084;-69
2023/06/13 00:54:02;;;;;;;1999.90;999.90;;;19.70;71.60;;;;;;5054463;28;20037;-69
2023/06/13 00:56:29;;;;;;;1999.90;999.90;;;19.70;71.70;;;;;;5053842;28;20052;-69
2023/06/13 00:58:59;;;;;;;1999.90;999.90;;;19.70;71.90;;;;;;5035966;28;20447;-69
2023/06/13 01:01:27;;;;;;;1999.90;999.90;;;19.60;71.90;;;;;;5053061;28;20140;-69
2023/06/13 01:03:55;;;;;;;1999.90;999.90;;;19.60;72.00;;;;;;5052443;28;20045;-69
2023/06/13 01:06:28;;;;;;;1999.90;999.90;;;19.60;72.20;;;;;;5036073;28;20057;-69
2023/06/13 01:08:58;;;;;;;1999.90;999.90;;;19.50;72.20;;;;;;5052497;28;20087;-70
2023/06/13 01:12:01;;;;;;;1999.90;999.90;;;19.50;72.20;;;;;;5053603;28;20044;-69
2023/06/13 01:14:30;;;;;;;;;;;19.50;72.50;;;;;;5043140;28;20060;-69
2023/06/13 01:17:04;;;;;;;1999.90;999.90;;;19.50;72.80;;;;;;5052589;28;19981;-70
2023/06/13 01:19:31;;;;;;;1999.90;999.90;;;19.50;72.20;;;;;;5053533;28;20055;-70
2023/06/13 01:21:58;;;;;;;1999.90;999.90;;;19.40;72.20;;;;;;5053425;28;20053;-69
2023/06/13 01:24:44;;;;;;;1999.90;999.90;;;19.40;72.20;;;;;;5053426;28;20125;-69
2023/06/13 01:27:12;;;;;;;1999.90;999.90;;;19.40;72.30;;;;;;5052662;28;20057;-68
2023/06/13 01:29:41;;;;;;;1999.90;999.90;;;19.40;72.30;;;;;;5053348;28;20432;-68
2023/06/13 01:32:08;;;;;;;1999.90;999.90;;;19.40;72.30;;;;;;5053900;28;20053;-69
2023/06/13 01:34:34;;;;;;;1999.90;999.90;;;19.30;72.30;;;;;;5052371;28;20078;-69
2023/06/13 01:37:00;;;;;;;1999.90;999.90;;;19.30;72.30;;;;;;5052547;28;20396;-68
2023/06/13 01:39:26;;;;;;;1999.90;999.90;;;19.20;72.40;;;;;;5053271;28;20045;-68
2023/06/13 01:41:51;;;;;;;1999.90;999.90;;;19.30;72.40;;;;;;5052067;28;20041;-68
2023/06/13 01:44:19;;;;;;;1999.90;999.90;;;19.20;72.30;;;;;;5035115;28;20393;-68
2023/06/13 01:46:58;;;;;;;1999.90;999.90;;;19.20;72.40;;;;;;5053224;28;20057;-69
2023/06/13 01:50:02;;;;;;;1999.90;999.90;;;19.10;72.40;;;;;;5053237;28;20040;-68
2023/06/13 01:52:41;;;;;;;1999.90;999.90;;;19.10;72.50;;;;;;5040657;28;20095;-68
2023/06/13 01:55:16;;;;;;;1999.90;999.90;;;19.10;72.60;;;;;;5052111;28;20528;-68
2023/06/13 01:57:58;;;;;;;1999.90;999.90;;;19.10;72.70;;;;;;5053951;28;20095;-69
2023/06/13 02:00:24;;;;;;;1999.90;999.90;;;19.00;72.70;;;;;;5055824;28;20045;-68
2023/06/13 02:02:51;;;;;;;1999.90;999.90;;;19.00;72.70;;;;;;5057013;28;20344;-68
2023/06/13 02:05:18;;;;;;;1999.90;999.90;;;18.90;73.00;;;;;;5039087;28;20068;-68
2023/06/13 02:07:44;;;;;;;1999.90;999.90;;;18.90;73.10;;;;;;5057202;28;20051;-68
2023/06/13 02:10:10;;;;;;;1999.90;999.90;;;18.90;73.30;;;;;;5055754;28;20041;-68
2023/06/13 02:12:35;;;;;;;1999.90;999.90;;;18.80;73.50;;;;;;5057378;28;20044;-68
2023/06/13 02:15:01;;;;;;;1999.90;999.90;;;18.80;73.70;;;;;;5038775;28;20049;-68
2023/06/13 02:17:27;;;;;;;1999.90;999.90;;;18.70;73.70;;;;;;5055538;28;20045;-68
2023/06/13 02:19:53;;;;;;;1999.90;999.90;;;18.70;73.80;;;;;;5056798;28;20084;-68
2023/06/13 02:22:18;;;;;;;1999.90;999.90;;;18.70;73.90;;;;;;5056693;28;20049;-69
2023/06/13 02:24:44;;;;;;;1999.90;999.90;;;18.60;73.90;;;;;;5055432;28;20136;-68
2023/06/13 02:27:10;;;;;;;1999.90;999.90;;;18.60;74.00;;;;;;5056635;28;20132;-68
2023/06/13 02:29:36;;;;;;;1999.90;999.90;;;18.60;74.00;;;;;;5056661;28;20053;-68
2023/06/13 02:32:02;;;;;;;1999.90;999.90;;;18.50;74.00;;;;;;5055353;28;20388;-68
2023/06/13 02:34:28;;;;;;;1999.90;999.90;;;18.50;74.20;;;;;;5056460;28;20128;-68
2023/06/13 02:36:54;;;;;;;1999.90;999.90;;;18.50;74.40;;;;;;5056898;28;20133;-69
2023/06/13 02:39:19;;;;;;;1999.90;999.90;;;18.50;74.50;;;;;;5056348;28;20496;-68
2023/06/13 02:41:45;;;;;;;1999.90;999.90;;;18.40;74.50;;;;;;5056344;28;20095;-68
2023/06/13 02:44:11;;;;;;;1999.90;999.90;;;18.40;74.50;;;;;;5055834;28;20053;-68
2023/06/13 02:46:36;;;;;;;1999.90;999.90;;;18.40;74.50;;;;;;5055094;28;20400;-68
2023/06/13 02:49:02;;;;;;;1999.90;999.90;;;18.40;74.70;;;;;;5055119;28;20076;-68
2023/06/13 02:51:28;;;;;;;1999.90;999.90;;;18.30;74.80;;;;;;5055006;28;20449;-68
2023/06/13 02:53:53;;;;;;;1999.90;999.90;;;18.30;75.00;;;;;;5056692;28;20080;-68
2023/06/13 02:56:19;;;;;;;1999.90;999.90;;;18.20;74.90;;;;;;5056570;28;20049;-68
2023/06/13 02:58:45;;;;;;;1999.90;999.90;;;18.20;74.80;;;;;;5055908;28;20081;-69
2023/06/13 03:01:12;;;;;;;1999.90;999.90;;;18.20;74.60;;;;;;5054724;28;20074;-68
2023/06/13 03:03:37;;;;;;;1999.90;999.90;;;18.20;74.70;;;;;;5054774;28;20052;-68
2023/06/13 03:06:04;;;;;;;1999.90;999.90;;;18.10;74.50;;;;;;5054941;28;20045;-68
2023/06/13 03:08:30;;;;;;;1999.90;999.90;;;18.10;74.50;;;;;;5054848;28;20056;-68
2023/06/13 03:10:56;;;;;;;1999.90;999.90;;;18.10;74.50;;;;;;5054421;28;20057;-68
2023/06/13 03:13:22;;;;;;;1999.90;999.90;;;18.10;74.60;;;;;;5056238;28;20076;-67
2023/06/13 03:15:47;;;;;;;1999.90;999.90;;;18.10;74.40;;;;;;5054565;28;20045;-68
2023/06/13 03:18:14;;;;;;;1999.90;999.90;;;18.10;74.50;;;;;;5055608;28;20041;-68
2023/06/13 03:20:45;;;;;;;1999.90;999.90;;;18.00;74.70;;;;;;5055577;28;20500;-68
2023/06/13 03:23:12;;;;;;;1999.90;999.90;;;18.00;75.10;;;;;;5054905;28;20103;-68
2023/06/13 03:25:41;;;;;;;1999.90;999.90;;;17.90;75.20;;;;;;5053933;28;20489;-69
2023/06/13 03:28:07;;;;;;;1999.90;999.90;;;17.90;75.40;;;;;;5055171;28;20409;-69
2023/06/13 03:30:34;;;;;;;1999.90;999.90;;;17.90;76.20;;;;;;5056157;28;20053;-68
2023/06/13 03:33:01;;;;;;;1999.90;999.90;;;17.90;76.00;;;;;;5055351;28;20044;-68
2023/06/13 03:35:27;;;;;;;1999.90;999.90;;;17.80;76.10;;;;;;5056035;28;20049;-68
2023/06/13 03:37:52;;;;;;;1999.90;999.90;;;17.70;76.40;;;;;;5037491;28;20532;-68
2023/06/13 03:40:18;;;;;;;1999.90;999.90;;;17.70;76.30;;;;;;5055177;28;20056;-68
2023/06/13 03:42:44;;;;;;;1999.90;999.90;;;17.60;76.00;;;;;;5054859;28;20053;-68
2023/06/13 03:45:10;;;;;;;1999.90;999.90;;;17.60;76.00;;;;;;5054979;28;20053;-68
2023/06/13 03:47:36;;;;;;;1999.90;999.90;;;17.60;76.20;;;;;;5054108;28;20056;-68
2023/06/13 03:50:02;;;;;;;1999.90;999.90;;;17.60;76.50;;;;;;5054926;28;20155;-68
2023/06/13 03:52:28;;;;;;;1999.90;999.90;;;17.50;76.50;;;;;;5055747;28;20073;-68
2023/06/13 03:54:53;;;;;;;1999.90;999.90;;;17.50;76.50;;;;;;5053743;28;20045;-68
2023/06/13 03:57:19;;;;;;;1999.90;999.90;;;17.50;76.50;;;;;;5054352;28;20041;-68
2023/06/13 03:59:45;;;;;;;1999.90;999.90;;;17.50;76.40;;;;;;5055121;28;20088;-68
2023/06/13 04:02:13;;;;;;;1999.90;999.90;;;17.50;76.50;;;;;;5054715;28;20045;-68
2023/06/13 04:04:42;;;;;;;1999.90;999.90;;;17.40;76.60;;;;;;5053742;28;20045;-68
2023/06/13 04:07:08;;;;;;;1999.90;999.90;;;17.40;76.60;;;;;;5054640;28;20056;-68
2023/06/13 04:09:34;;;;;;;1999.90;999.90;;;17.40;76.80;;;;;;5054683;28;20045;-68
2023/06/13 04:12:02;;;;;;;1999.90;999.90;;;17.40;76.90;;;;;;5053569;28;20571;-68
2023/06/13 04:14:27;;;;;;;1999.90;999.90;;;17.30;77.00;;;;;;5054387;28;20059;-68
2023/06/13 04:16:53;;;;;;;1999.90;999.90;;;17.30;77.10;;;;;;5054492;28;20048;-68
2023/06/13 04:19:19;;;;;;;1999.90;999.90;;;17.30;77.00;;;;;;5054405;28;20580;-68
2023/06/13 04:21:51;;;;;;;1999.90;999.90;;;17.20;77.10;;;;;;5053215;28;20072;-68
2023/06/13 04:24:17;;;;;;;1999.90;999.90;;;17.20;77.30;;;;;;5053467;28;20045;-68
2023/06/13 04:26:45;;;;;;;1999.90;999.90;;;17.20;77.30;;;;;;5054401;28;20090;-68
2023/06/13 04:29:13;;;;;;;1999.90;999.90;;;17.20;77.60;;;;;;5054274;28;20049;-68
2023/06/13 04:31:39;;;;;;;1999.90;999.90;;;17.20;77.70;;;;;;5053298;28;20059;-68
2023/06/13 04:34:07;;;;;;;1999.90;999.90;;;17.10;77.40;;;;;;5053687;28;20056;-68
2023/06/13 04:36:35;;;;;;;1999.90;999.90;;;17.10;77.30;;;;;;5054256;28;20060;-68
2023/06/13 04:39:06;;;;;;;1999.90;999.90;;;17.10;77.40;;;;;;5054046;28;20041;-69
2023/06/13 04:41:38;;;;;;;1999.90;999.90;;;17.10;77.30;;;;;;5054162;28;20052;-68
2023/06/13 04:44:05;;;;;;;1999.90;999.90;;;17.10;77.20;;;;;;5052625;28;20400;-68
2023/06/13 04:46:32;;;;;;;1999.90;999.90;;;17.10;77.00;;;;;;5054836;28;20048;-68
2023/06/13 04:48:58;;;;;;;1999.90;999.90;;;17.10;76.90;;;;;;5053589;28;20110;-68
2023/06/13 04:51:25;;;;;;;1999.90;999.90;;;17.10;77.00;;;;;;5036407;28;20475;-68
2023/06/13 04:53:52;;;;;;;1999.90;999.90;;;17.10;77.10;;;;;;5054686;28;20052;-68
2023/06/13 04:56:18;;;;;;;1999.90;999.90;;;17.10;77.20;;;;;;5053832;28;20503;-67
2023/06/13 04:58:44;;;;;;;1999.90;999.90;;;17.10;77.40;;;;;;5054278;28;20128;-68
2023/06/13 05:01:11;;;;;;;1999.90;999.90;;;17.10;77.50;;;;;;5052808;28;20047;-68
2023/06/13 05:03:38;;;;;;;1999.90;999.90;;;17.10;77.60;;;;;;5052558;28;20056;-68
2023/06/13 05:06:04;;;;;;;1999.90;999.90;;;17.10;77.60;;;;;;5052494;28;20384;-68
2023/06/13 05:08:30;;;;;;;1999.90;999.90;;;17.10;77.50;;;;;;5019701;28;20106;-67
2023/06/13 05:10:58;;;;;;;1999.90;999.90;;;17.10;77.50;;;;;;5053208;28;20037;-69
2023/06/13 05:13:24;;;;;;;1999.90;999.90;;;17.20;77.90;;;;;;5053519;28;20123;-67
2023/06/13 05:15:49;;;;;;;1999.90;999.90;;;17.20;77.90;;;;;;5053606;28;20527;-68
2023/06/13 05:18:17;;;;;;;1999.90;999.90;;;17.20;77.70;;;;;;5052390;28;20366;-67
2023/06/13 05:20:43;;;;;;;1999.90;999.90;;;17.20;77.50;;;;;;5053559;28;20111;-68
2023/06/13 05:23:10;;;;;;;1999.90;999.90;;;17.20;77.50;;;;;;5053423;28;20057;-68
2023/06/13 05:25:36;;;;;;;1999.90;999.90;;;17.30;77.20;;;;;;5052876;28;20052;-68
2023/06/13 05:28:03;;;;;;;1999.90;999.90;;;17.30;76.90;;;;;;5053413;28;20120;-67
2023/06/13 05:30:29;;;;;;;1999.90;999.90;;;17.40;76.80;;;;;;5053093;28;20493;-68
2023/06/13 05:32:56;;;;;;;1999.90;999.90;;;17.40;76.80;;;;;;5053367;28;20044;-68
2023/06/13 05:35:22;;;;;;;1999.90;999.90;;;17.50;76.80;;;;;;5056174;28;20055;-67
2023/06/13 05:37:50;;;;;;;1999.90;999.90;;;17.50;76.80;;;;;;5057485;28;20477;-67
2023/06/13 05:40:15;;;;;;;1999.90;999.90;;;17.60;76.80;;;;;;5056302;28;20049;-67
2023/06/13 05:42:41;;;;;;;1999.90;999.90;;;17.60;76.70;;;;;;5057921;28;20049;-67
2023/06/13 05:45:08;;;;;;;1999.90;999.90;;;17.70;76.60;;;;;;5057386;28;20552;-67
2023/06/13 05:47:35;;;;;;;1999.90;999.90;;;17.70;76.50;;;;;;5057312;28;20480;-67
2023/06/13 05:50:01;;;;;;;1999.90;999.90;;;17.70;76.40;;;;;;5056127;28;20041;-67
2023/06/13 05:52:26;;;;;;;1999.90;999.90;;;17.80;76.20;;;;;;5056247;28;20044;-67
2023/06/13 05:54:53;;;;;;;1999.90;999.90;;;17.90;76.40;;;;;;5055878;28;20095;-67
2023/06/13 05:57:19;;;;;;;1999.90;999.90;;;17.90;76.40;;;;;;5056997;28;20119;-67
2023/06/13 05:59:44;;;;;;;1999.90;999.90;;;17.90;76.30;;;;;;5057136;28;20053;-67
2023/06/13 06:02:11;;;;;;;1999.90;999.90;;;18.00;76.20;;;;;;5056711;28;20485;-67
2023/06/13 06:04:38;;;;;;;1999.90;999.90;;;18.00;76.30;;;;;;5055858;28;20374;-67
2023/06/13 06:07:04;;;;;;;1999.90;999.90;;;18.10;76.30;;;;;;5057482;28;20094;-67
2023/06/13 06:09:30;;;;;;;1999.90;999.90;;;18.10;76.40;;;;;;5057159;28;20420;-67
2023/06/13 06:11:56;;;;;;;1999.90;999.90;;;18.20;76.30;;;;;;5055626;28;20051;-67
2023/06/13 06:14:22;;;;;;;1999.90;999.90;;;18.20;75.90;;;;;;5056775;28;20095;-67
2023/06/13 06:16:50;;;;;;;1999.90;999.90;;;18.20;75.60;;;;;;5056805;28;20084;-67
2023/06/13 06:19:16;;;;;;;1999.90;999.90;;;18.30;75.30;;;;;;5039934;28;20369;-67
2023/06/13 06:21:41;;;;;;;1999.90;999.90;;;18.40;75.10;;;;;;5056704;28;20044;-67
2023/06/13 06:24:08;;;;;;;1999.90;999.90;;;18.40;74.80;;;;;;5056674;28;20056;-67
2023/06/13 06:26:33;;;;;;;1999.90;999.90;;;18.50;74.70;;;;;;5055446;28;20049;-67
2023/06/13 06:28:59;;;;;;;1999.90;999.90;;;18.60;74.50;;;;;;5039556;28;20124;-67
2023/06/13 06:31:27;;;;;;;1999.90;999.90;;;18.60;74.30;;;;;;5056328;28;20175;-67
2023/06/13 06:33:53;;;;;;;1999.90;999.90;;;18.60;74.00;;;;;;5056501;28;20056;-67
2023/06/13 06:36:22;;;;;;;1999.90;999.90;;;18.70;73.90;;;;;;5056175;28;20041;-68
2023/06/13 06:38:47;;;;;;;1999.90;999.90;;;18.70;73.60;;;;;;5056312;28;20048;-67
2023/06/13 06:41:13;;;;;;;1999.90;999.90;;;18.80;73.60;;;;;;5055162;28;20053;-67
2023/06/13 06:43:39;;;;;;;1999.90;999.90;;;18.90;73.40;;;;;;5056471;28;20567;-67
2023/06/13 06:46:05;;;;;;;1999.90;999.90;;;18.90;73.10;;;;;;5053621;28;20131;-67
2023/06/13 06:48:30;;;;;;;1999.90;999.90;;;19.00;72.90;;;;;;5056651;28;20049;-67
2023/06/13 06:50:56;;;;;;;1999.90;999.90;;;19.00;72.80;;;;;;5055413;28;20068;-67
2023/06/13 06:53:22;;;;;;;1999.90;999.90;;;19.10;72.80;;;;;;5056299;28;20442;-68
2023/06/13 06:55:47;;;;;;;1999.90;999.90;;;19.10;72.50;;;;;;5056791;28;20425;-67
2023/06/13 06:58:13;;;;;;;1999.90;999.90;;;19.20;72.50;;;;;;5056140;28;20045;-67
2023/06/13 07:00:39;;;;;;;1999.90;999.90;;;19.20;72.60;;;;;;5056126;28;20045;-67
2023/06/13 07:03:07;;;;;;;1999.90;999.90;;;19.30;72.70;;;;;;5055075;28;20081;-67
2023/06/13 07:05:33;;;;;;;1999.90;999.90;;;19.40;72.70;;;;;;5055481;28;20044;-67
2023/06/13 07:07:59;;;;;;;1999.90;999.90;;;19.40;72.50;;;;;;5055982;28;20389;-67
2023/06/13 07:10:26;;;;;;;1999.90;999.90;;;19.50;72.30;;;;;;5054833;28;20051;-67
2023/06/13 07:12:52;;;;;;;1999.90;999.90;;;19.50;72.20;;;;;;5055770;28;20057;-68
2023/06/13 07:15:17;;;;;;;1999.90;999.90;;;19.60;72.40;;;;;;5055695;28;20056;-67
2023/06/13 07:17:43;;;;;;;1999.90;999.90;;;19.70;72.20;;;;;;5055721;28;20045;-68
2023/06/13 07:20:11;;;;;;;1999.90;999.90;;;19.80;72.10;;;;;;5055803;28;20049;-67
2023/06/13 07:22:36;;;;;;;1999.90;999.90;;;19.80;71.90;;;;;;5054739;28;20044;-67
2023/06/13 07:25:03;;;;;;;1999.90;999.90;;;19.90;71.80;;;;;;5056284;28;20056;-67
2023/06/13 07:27:29;;;;;;;1999.90;999.90;;;19.90;71.50;;;;;;5054406;28;20397;-67
2023/06/13 07:29:55;;;;;;;1999.90;999.90;;;20.00;71.40;;;;;;5054532;28;20037;-67
2023/06/13 07:32:20;;;;;;;1999.90;999.90;;;20.10;71.50;;;;;;5037734;28;20052;-67
2023/06/13 07:34:46;;;;;;;1999.90;999.90;;;20.10;71.60;;;;;;5054303;28;20045;-68
2023/06/13 07:37:12;;;;;;;1999.90;999.90;;;20.20;71.80;;;;;;5054154;28;20045;-67
2023/06/13 07:39:37;;;;;;;1999.90;999.90;;;20.20;71.80;;;;;;5055747;28;20132;-67
2023/06/13 07:42:05;;;;;;;1999.90;999.90;;;20.30;71.70;;;;;;5037554;28;20048;-68
2023/06/13 07:44:31;;;;;;;1999.90;999.90;;;20.40;71.60;;;;;;5055648;28;20482;-67
2023/06/13 07:46:57;;;;;;;1999.90;999.90;;;20.40;71.60;;;;;;5055276;28;20053;-67
2023/06/13 07:49:22;;;;;;;1999.90;999.90;;;20.50;71.60;;;;;;5054066;28;20045;-67
2023/06/13 07:51:48;;;;;;;1999.90;999.90;;;20.50;71.50;;;;;;5054857;28;20053;-68
2023/06/13 07:54:14;;;;;;;1999.90;999.90;;;20.60;71.60;;;;;;5037597;28;20119;-67
2023/06/13 07:56:40;;;;;;;1999.90;999.90;;;20.70;71.50;;;;;;5055589;28;20465;-67
2023/06/13 07:59:06;;;;;;;1999.90;999.90;;;20.80;71.50;;;;;;5053687;28;20159;-67
2023/06/13 08:01:32;;;;;;;1999.90;999.90;;;20.80;71.50;;;;;;5037382;28;20556;-67
2023/06/13 08:03:58;;;;;;;1999.90;999.90;;;20.90;71.30;;;;;;5055751;28;20106;-67
2023/06/13 08:06:24;;;;;;;1999.90;999.90;;;21.00;71.20;;;;;;5054957;28;20480;-67
2023/06/13 08:08:49;;;;;;;1999.90;999.90;;;21.10;70.90;;;;;;5055370;28;20037;-67
2023/06/13 08:11:15;;;;;;;1999.90;999.90;;;21.10;70.60;;;;;;5055349;28;20443;-67
2023/06/13 08:13:41;;;;;;;1999.90;999.90;;;21.20;70.50;;;;;;5054719;28;20053;-68
2023/06/13 08:16:07;;;;;;;1999.90;999.90;;;21.20;70.20;;;;;;5054707;28;20392;-67
2023/06/13 08:18:32;;;;;;;1999.90;999.90;;;21.30;70.40;;;;;;5053441;28;20044;-67
2023/06/13 08:20:58;;;;;;;1999.90;999.90;;;21.40;70.30;;;;;;5054039;28;20045;-69
2023/06/13 08:23:24;;;;;;;1999.90;999.90;;;21.50;70.10;;;;;;5054550;28;20393;-68
2023/06/13 08:25:49;;;;;;;1999.90;999.90;;;21.50;70.10;;;;;;5053390;28;20052;-67
2023/06/13 08:28:16;;;;;;;1999.90;999.90;;;21.60;70.30;;;;;;5054473;28;20037;-68
2023/06/13 08:30:42;;;;;;;1999.90;999.90;;;21.60;70.50;;;;;;5036921;28;20098;-68
2023/06/13 08:33:08;;;;;;;1999.90;999.90;;;21.70;70.40;;;;;;5054658;28;20500;-67
2023/06/13 08:35:34;;;;;;;1999.90;999.90;;;21.80;70.10;;;;;;5055134;28;20052;-67
2023/06/13 08:38:00;;;;;;;1999.90;999.90;;;21.90;70.10;;;;;;5054753;28;20045;-68
2023/06/13 08:40:26;;;;;;;1999.90;999.90;;;21.90;69.60;;;;;;5054110;28;20071;-68
2023/06/13 08:42:52;;;;;;;1999.90;999.90;;;21.90;69.10;;;;;;5054028;28;20049;-67
2023/06/13 08:45:18;;;;;;;1999.90;999.90;;;22.00;69.00;;;;;;5054103;28;20045;-67
2023/06/13 08:47:47;;;;;;;1999.90;999.90;;;22.10;68.90;;;;;;5054725;28;20060;-67
2023/06/13 08:50:18;;;;;;;1999.90;999.90;;;22.10;68.60;;;;;;5054097;28;20048;-67
2023/06/13 08:52:47;;;;;;;1999.90;999.90;;;22.20;68.00;;;;;;5053793;28;20053;-67
2023/06/13 08:55:14;;;;;;;1999.90;999.90;;;22.30;67.70;;;;;;5053977;28;20400;-67
2023/06/13 08:57:42;;;;;;;1999.90;999.90;;;22.30;67.40;;;;;;5054155;28;20041;-67
2023/06/13 09:00:13;;;;;;;1999.90;999.90;;;22.40;67.20;;;;;;5054457;28;20057;-67
2023/06/13 09:02:45;;;;;;;1999.90;999.90;;;22.40;67.00;;;;;;5052961;28;20048;-68
2023/06/13 09:05:13;;;;;;;1999.90;999.90;;;22.50;67.20;;;;;;5052683;28;20041;-67
2023/06/13 09:07:40;;;;;;;1999.90;999.90;;;22.50;67.30;;;;;;5053096;28;20089;-68
2023/06/13 09:10:10;;;;;;;1999.90;999.90;;;22.50;67.40;;;;;;5053208;28;20198;-66
2023/06/13 09:12:36;;;;;;;1999.90;999.90;;;22.60;67.40;;;;;;5053647;28;20056;-67
2023/06/13 09:15:03;;;;;;;1999.90;999.90;;;22.70;67.60;;;;;;5053573;28;20048;-67
2023/06/13 09:17:29;;;;;;;1999.90;999.90;;;22.80;67.40;;;;;;5052485;28;20135;-67
2023/06/13 09:19:55;;;;;;;1999.90;999.90;;;22.80;67.20;;;;;;5053278;28;20546;-67
2023/06/13 09:22:21;;;;;;;1999.90;999.90;;;22.90;67.40;;;;;;5053837;28;20052;-67
2023/06/13 09:24:47;;;;;;;1999.90;999.90;;;22.90;67.40;;;;;;5053546;28;20052;-67
2023/06/13 09:27:14;;;;;;;1999.90;999.90;;;22.90;67.50;;;;;;5053016;28;20091;-67
2023/06/13 09:29:40;;;;;;;1999.90;999.90;;;23.00;67.50;;;;;;5052384;28;20056;-67
2023/06/13 09:32:08;;;;;;;1999.90;999.90;;;23.00;67.50;;;;;;5052000;28;20037;-67
2023/06/13 09:34:34;;;;;;;1999.90;999.90;;;23.00;67.90;;;;;;5052517;28;20052;-67
2023/06/13 09:37:00;;;;;;;1999.90;999.90;;;23.10;68.30;;;;;;5052248;28;20052;-67
2023/06/13 09:39:27;;;;;;;1999.90;999.90;;;23.10;68.50;;;;;;5053379;28;20075;-67
2023/06/13 09:41:57;;;;;;;1999.90;999.90;;;23.10;68.80;;;;;;5053084;28;20556;-66
2023/06/13 09:44:24;;;;;;;1999.90;999.90;;;23.10;68.80;;;;;;5053624;28;20057;-67
2023/06/13 09:46:51;;;;;;;1999.90;999.90;;;23.10;68.50;;;;;;5052021;28;20053;-67
2023/06/13 09:49:18;;;;;;;1999.90;999.90;;;23.10;68.50;;;;;;5053894;28;20049;-66
2023/06/13 09:51:45;;;;;;;1999.90;999.90;;;23.10;68.20;;;;;;5052352;28;20044;-66
2023/06/13 09:54:11;;;;;;;1999.90;999.90;;;23.10;68.10;;;;;;5052093;28;20045;-67
2023/06/13 09:56:41;;;;;;;1999.90;999.90;;;23.10;68.10;;;;;;5053249;28;20053;-66
2023/06/13 09:59:07;;;;;;;1999.90;999.90;;;23.00;68.40;;;;;;5054052;28;20132;-67
2023/06/13 10:01:34;;;;;;;1999.90;999.90;;;23.10;68.60;;;;;;5052053;28;20526;-67
2023/06/13 10:04:02;;;;;;;1999.90;999.90;;;23.10;68.30;;;;;;5051601;28;20484;-68
2023/06/13 10:06:29;;;;;;;1999.90;999.90;;;23.10;68.20;;;;;;5053833;28;20068;-66
2023/06/13 10:08:55;;;;;;;1999.90;999.90;;;23.10;68.40;;;;;;5052004;28;20029;-67
2023/06/13 10:11:29;;;;;;;1999.90;999.90;;;23.10;68.10;;;;;;5053807;28;20041;-67
2023/06/13 10:14:12;;;;;;;1999.90;999.90;;;23.10;67.90;;;;;;5053020;28;20471;-67
2023/06/13 10:16:38;;;;;;;;;;;23.20;67.90;;;;;;5053251;28;20053;-67
2023/06/13 10:19:05;;;;;;;1999.90;999.90;;;23.20;67.50;;;;;;5053677;28;20343;-67
2023/06/13 10:21:35;;;;;;;1999.90;999.90;;;23.30;67.50;;;;;;5055647;28;20443;-68
2023/06/13 10:24:02;;;;;;;1999.90;999.90;;;23.20;67.30;;;;;;5056634;28;20047;-68
2023/06/13 10:26:40;;;;;;;1999.90;999.90;;;23.30;67.30;;;;;;5057192;28;20049;-69
2023/06/13 10:30:02;;;;;;;1999.90;999.90;;;23.30;67.20;;;;;;5056837;28;20218;-67
2023/06/13 10:33:10;;;;;;;1999.90;999.90;;;23.30;67.20;;;;;;4990819;28;20066;-67
2023/06/13 10:35:45;;;;;;;1999.90;999.90;;;23.30;67.50;;;;;;5057335;28;20040;-68
2023/06/13 10:38:58;;;;;;;1999.90;999.90;;;23.30;66.80;;;;;;5056827;28;20159;-67
2023/06/13 10:41:37;;;;;;;1999.90;999.90;;;23.40;66.20;;;;;;4997783;28;20446;-68
2023/06/13 10:44:14;;;;;;;1999.90;999.90;;;23.40;66.10;;;;;;5052502;28;20048;-68
2023/06/13 10:46:41;;;;;;;1999.90;999.90;;;23.40;66.00;;;;;;5056383;28;20044;-68
2023/06/13 10:49:16;;;;;;;1999.90;999.90;;;23.50;65.50;;;;;;5056265;28;20115;-67
2023/06/13 10:51:46;;;;;;;1999.90;999.90;;;23.50;65.00;;;;;;5056331;28;20041;-68
2023/06/13 10:54:14;;;;;;;1999.90;999.90;;;23.50;64.40;;;;;;5056295;28;20114;-67
2023/06/13 10:56:42;;;;;;;1999.90;999.90;;;23.60;64.20;;;;;;5055549;28;20049;-67
2023/06/13 10:59:15;;;;;;;1999.90;999.90;;;23.60;64.30;;;;;;5056008;28;20060;-68
2023/06/13 11:01:44;;;;;;;1999.90;999.90;;;23.70;64.30;;;;;;5056373;28;20041;-67
2023/06/13 11:04:14;;;;;;;1999.90;999.90;;;23.70;64.70;;;;;;5055478;28;20049;-67
2023/06/13 11:06:42;;;;;;;1999.90;999.90;;;23.70;63.10;;;;;;5056362;28;20102;-67
2023/06/13 11:09:08;;;;;;;1999.90;999.90;;;23.70;62.30;;;;;;5055887;28;20044;-68
2023/06/13 11:12:06;;;;;;;1999.90;999.90;;;23.70;62.20;;;;;;5054849;28;20136;-68
2023/06/13 11:14:37;;;;;;;1999.90;999.90;;;23.80;63.00;;;;;;5047312;28;20086;-68
2023/06/13 11:17:03;;;;;;;1999.90;999.90;;;23.80;62.10;;;;;;5055539;28;20048;-68
2023/06/13 11:19:33;;;;;;;1999.90;999.90;;;23.90;61.90;;;;;;5038189;28;20045;-67
2023/06/13 11:21:59;;;;;;;1999.90;999.90;;;23.90;61.50;;;;;;5055756;28;20049;-67
2023/06/13 11:24:27;;;;;;;1999.90;999.90;;;23.90;61.40;;;;;;5054563;28;20162;-68
2023/06/13 11:26:56;;;;;;;1999.90;999.90;;;24.00;60.20;;;;;;5056157;28;20049;-68
2023/06/13 11:29:22;;;;;;;1999.90;999.90;;;24.00;60.30;;;;;;5055486;28;20037;-67
2023/06/13 11:31:52;;;;;;;1999.90;999.90;;;24.10;60.80;;;;;;5053866;28;20546;-67
2023/06/13 11:34:20;;;;;;;1999.90;999.90;;;24.10;61.30;;;;;;5055781;28;20128;-68
2023/06/13 11:36:49;;;;;;;1999.90;999.90;;;24.10;61.40;;;;;;5056077;28;20389;-67
2023/06/13 11:39:29;;;;;;;1999.90;999.90;;;24.20;61.40;;;;;;5038524;28;20051;-67
2023/06/13 11:41:57;;;;;;;1999.90;999.90;;;24.20;60.80;;;;;;5055837;28;20080;-67
2023/06/13 11:44:23;;;;;;;1999.90;999.90;;;24.20;60.30;;;;;;5053558;28;20076;-67
2023/06/13 11:46:50;;;;;;;1999.90;999.90;;;24.30;60.80;;;;;;5055406;28;20049;-67
2023/06/13 11:49:16;;;;;;;1999.90;999.90;;;24.30;61.10;;;;;;5037656;28;20056;-68
2023/06/13 11:51:44;;;;;;;1999.90;999.90;;;24.30;61.30;;;;;;5054609;28;20139;-68
2023/06/13 11:54:11;;;;;;;1999.90;999.90;;;24.30;60.90;;;;;;5037785;28;20111;-67
2023/06/13 11:56:49;;;;;;;1999.90;999.90;;;24.30;60.70;;;;;;5054158;28;20485;-67
2023/06/13 11:59:17;;;;;;;1999.90;999.90;;;24.30;60.60;;;;;;5055814;28;20041;-68
2023/06/13 12:01:53;;;;;;;1999.90;999.90;;;24.30;60.50;;;;;;5055878;28;20426;-67
2023/06/13 12:04:23;;;;;;;1999.90;999.90;;;24.40;60.30;;;;;;5054428;28;20091;-67